Time;durP1;ratioP1;P1;durP2;ratioP2;P2;SDS_P1;SDS_P2;PMS_P1;PMS_P2;Temp;Humidity;BMP_temperature;BMP_pressure;BME280_temperature;BME280_humidity;BME280_pressure;Samples;Min_cycle;Max_cycle;Signal;HPM_P1;HPM_P2
2023/04/25 00:00:01;;;;;;;19.25;4.78;;;6.80;99.90;;;;;;5037149;28;20033;-66
2023/04/25 00:02:28;;;;;;;19.45;4.07;;;6.80;99.90;;;;;;5052321;28;20052;-66
2023/04/25 00:04:54;;;;;;;16.90;3.95;;;6.70;99.90;;;;;;5036966;28;20057;-66
2023/04/25 00:07:19;;;;;;;12.73;4.38;;;6.70;99.90;;;;;;5054419;28;20041;-66
2023/04/25 00:09:45;;;;;;;10.35;3.08;;;6.60;99.90;;;;;;5052444;28;20064;-66
2023/04/25 00:12:11;;;;;;;12.65;3.55;;;6.60;99.90;;;;;;5053351;28;20081;-66
2023/04/25 00:14:37;;;;;;;17.27;4.57;;;6.50;99.90;;;;;;5052874;28;20106;-67
2023/04/25 00:17:04;;;;;;;15.40;3.53;;;6.50;99.90;;;;;;5036009;28;20048;-66
2023/04/25 00:19:30;;;;;;;15.38;4.38;;;6.50;99.90;;;;;;5052563;28;20044;-66
2023/04/25 00:21:55;;;;;;;18.38;4.55;;;6.40;99.90;;;;;;5053158;28;20044;-66
2023/04/25 00:24:21;;;;;;;13.73;4.03;;;6.40;99.90;;;;;;5035335;28;20044;-66
2023/04/25 00:26:47;;;;;;;17.20;4.20;;;6.40;99.90;;;;;;5036663;28;20037;-66
2023/04/25 00:29:13;;;;;;;14.10;3.88;;;6.40;99.90;;;;;;5053036;28;20494;-66
2023/04/25 00:31:38;;;;;;;15.45;4.15;;;6.40;99.90;;;;;;5051730;28;20037;-66
2023/04/25 00:34:04;;;;;;;19.80;4.90;;;6.30;99.90;;;;;;5036440;28;20071;-66
2023/04/25 00:36:30;;;;;;;21.02;4.47;;;6.30;99.90;;;;;;5035956;28;20029;-66
2023/04/25 00:38:56;;;;;;;13.13;3.72;;;6.30;99.90;;;;;;5053616;28;20048;-66
2023/04/25 00:41:22;;;;;;;15.65;3.83;;;6.40;99.90;;;;;;5053034;28;20398;-66
2023/04/25 00:43:48;;;;;;;15.02;4.80;;;6.40;99.90;;;;;;5053097;28;20073;-66
2023/04/25 00:46:14;;;;;;;11.43;3.85;;;6.40;99.90;;;;;;5053252;28;20033;-66
2023/04/25 00:48:40;;;;;;;11.73;3.47;;;6.40;99.90;;;;;;5053509;28;20041;-66
2023/04/25 00:51:06;;;;;;;12.95;3.58;;;6.40;99.90;;;;;;5053189;28;20397;-66
2023/04/25 00:53:32;;;;;;;15.68;4.15;;;6.40;99.90;;;;;;5052397;28;20037;-66
2023/04/25 00:55:58;;;;;;;18.63;4.07;;;6.40;99.90;;;;;;5052783;28;20432;-66
2023/04/25 00:58:24;;;;;;;15.63;4.32;;;6.50;99.90;;;;;;5053098;28;20466;-66
2023/04/25 01:00:51;;;;;;;12.45;3.47;;;6.50;99.90;;;;;;5051559;28;20039;-66
2023/04/25 01:03:19;;;;;;;11.15;3.75;;;6.50;99.90;;;;;;5052019;28;20041;-66
2023/04/25 01:05:46;;;;;;;17.80;4.95;;;6.50;99.90;;;;;;5052952;28;20048;-66
2023/04/25 01:08:12;;;;;;;15.40;4.05;;;6.60;99.90;;;;;;5035314;28;20048;-66
2023/04/25 01:10:38;;;;;;;10.45;3.17;;;6.60;99.90;;;;;;5051497;28;20063;-66
2023/04/25 01:13:04;;;;;;;14.98;3.50;;;6.60;99.90;;;;;;5052790;28;20045;-66
2023/04/25 01:15:30;;;;;;;19.25;4.20;;;6.60;99.90;;;;;;5052643;28;20041;-66
2023/04/25 01:17:58;;;;;;;19.63;3.47;;;6.60;99.90;;;;;;5052106;28;20041;-66
2023/04/25 01:20:24;;;;;;;11.45;3.53;;;6.60;99.90;;;;;;5052098;28;20093;-66
2023/04/25 01:22:54;;;;;;;16.25;3.08;;;6.70;99.90;;;;;;5053394;28;20045;-66
2023/04/25 01:25:21;;;;;;;19.83;3.80;;;6.70;99.90;;;;;;5052814;28;20056;-67
2023/04/25 01:27:47;;;;;;;10.95;2.97;;;6.70;99.90;;;;;;5050964;28;20037;-66
2023/04/25 01:30:13;;;;;;;16.75;3.83;;;6.70;99.90;;;;;;5052845;28;20664;-66
2023/04/25 01:32:41;;;;;;;13.02;3.42;;;6.70;99.90;;;;;;5051388;28;20390;-66
2023/04/25 01:35:09;;;;;;;9.95;3.53;;;6.70;99.90;;;;;;5052224;28;20029;-66
2023/04/25 01:37:39;;;;;;;10.93;2.35;;;6.70;99.90;;;;;;5052679;28;20047;-66
2023/04/25 01:40:05;;;;;;;14.95;3.90;;;6.70;99.90;;;;;;5051674;28;20047;-66
2023/04/25 01:42:32;;;;;;;17.50;3.78;;;6.70;99.90;;;;;;5050402;28;20052;-66
2023/04/25 01:44:58;;;;;;;9.25;2.60;;;6.70;99.90;;;;;;5034953;28;20049;-66
2023/04/25 01:47:24;;;;;;;12.82;4.15;;;6.60;99.90;;;;;;5052480;28;20370;-66
2023/04/25 01:49:50;;;;;;;10.95;3.08;;;6.60;99.90;;;;;;5051021;28;20090;-66
2023/04/25 01:52:15;;;;;;;12.07;3.38;;;6.60;99.90;;;;;;5051234;28;20393;-67
2023/04/25 01:54:43;;;;;;;16.65;3.33;;;6.50;99.90;;;;;;5050292;28;20494;-66
2023/04/25 01:57:10;;;;;;;13.32;2.63;;;6.50;99.90;;;;;;5050760;28;20033;-66
2023/04/25 01:59:36;;;;;;;13.60;3.42;;;6.50;99.90;;;;;;5052030;28;20103;-66
2023/04/25 02:02:05;;;;;;;15.10;2.80;;;6.50;99.90;;;;;;5051659;28;20041;-66
2023/04/25 02:04:31;;;;;;;13.45;3.60;;;6.50;99.90;;;;;;5052063;28;20045;-66
2023/04/25 02:06:56;;;;;;;8.98;2.47;;;6.50;99.90;;;;;;5051566;28;20049;-66
2023/04/25 02:09:23;;;;;;;10.65;2.95;;;6.50;99.90;;;;;;5066440;28;20478;-66
2023/04/25 02:11:48;;;;;;;11.65;3.70;;;6.50;99.90;;;;;;5051051;28;20041;-66
2023/04/25 02:14:14;;;;;;;12.65;3.00;;;6.50;99.90;;;;;;5052508;28;20063;-66
2023/04/25 02:16:40;;;;;;;16.65;3.00;;;6.50;99.90;;;;;;5051641;28;20036;-66
2023/04/25 02:19:06;;;;;;;7.63;2.38;;;6.50;99.90;;;;;;5034411;28;20044;-67
2023/04/25 02:21:32;;;;;;;8.15;1.70;;;6.50;99.90;;;;;;5050599;28;20041;-67
2023/04/25 02:23:58;;;;;;;6.47;2.08;;;6.40;99.90;;;;;;5051548;28;20041;-67
2023/04/25 02:26:24;;;;;;;6.53;1.52;;;6.20;99.90;;;;;;5050512;28;20045;-67
2023/04/25 02:28:50;;;;;;;6.90;1.55;;;6.00;99.90;;;;;;5050817;28;20044;-67
2023/04/25 02:31:16;;;;;;;9.68;1.88;;;5.90;99.90;;;;;;5049800;28;20041;-67
2023/04/25 02:33:42;;;;;;;14.23;2.53;;;5.90;99.90;;;;;;5050846;28;20052;-67
2023/04/25 02:36:08;;;;;;;9.52;2.05;;;5.80;99.90;;;;;;5050943;28;20045;-67
2023/04/25 02:38:33;;;;;;;4.60;1.60;;;5.80;99.90;;;;;;5050648;28;20394;-67
2023/04/25 02:40:59;;;;;;;11.35;2.80;;;5.90;99.90;;;;;;5050752;28;20040;-67
2023/04/25 02:43:25;;;;;;;11.00;2.20;;;5.90;99.90;;;;;;5050405;28;20047;-67
2023/04/25 02:45:50;;;;;;;12.38;2.83;;;5.90;99.90;;;;;;5050258;28;20087;-67
2023/04/25 02:48:16;;;;;;;11.15;2.70;;;5.90;99.90;;;;;;5033866;28;20048;-67
2023/04/25 02:50:42;;;;;;;5.63;2.00;;;5.90;99.90;;;;;;5050694;28;20088;-67
2023/04/25 02:53:08;;;;;;;8.70;2.17;;;5.90;99.90;;;;;;5051168;28;20041;-67
2023/04/25 02:55:33;;;;;;;7.80;2.30;;;5.90;99.90;;;;;;5049669;28;20371;-66
2023/04/25 02:57:59;;;;;;;9.93;2.35;;;5.90;99.90;;;;;;5051907;28;20453;-67
2023/04/25 03:00:25;;;;;;;10.43;2.67;;;5.90;99.90;;;;;;5049376;28;20060;-66
2023/04/25 03:02:50;;;;;;;14.05;2.88;;;5.90;99.90;;;;;;5050879;28;20036;-67
2023/04/25 03:05:17;;;;;;;10.35;2.22;;;6.00;99.90;;;;;;5033427;28;20474;-66
2023/04/25 03:07:44;;;;;;;8.73;2.50;;;6.00;99.90;;;;;;5055613;28;20047;-67
2023/04/25 03:10:10;;;;;;;8.70;3.03;;;6.00;99.90;;;;;;5054295;28;20057;-67
2023/04/25 03:12:36;;;;;;;12.73;2.55;;;6.10;99.90;;;;;;5053251;28;20060;-67
2023/04/25 03:15:02;;;;;;;7.93;2.30;;;6.10;99.90;;;;;;5038144;28;20029;-67
2023/04/25 03:17:28;;;;;;;11.50;2.50;;;6.10;99.90;;;;;;5037435;28;20048;-66
2023/04/25 03:19:55;;;;;;;10.15;2.60;;;6.10;99.90;;;;;;5036734;28;20524;-67
2023/04/25 03:22:20;;;;;;;9.88;2.20;;;6.10;99.90;;;;;;5055068;28;20041;-66
2023/04/25 03:24:47;;;;;;;17.42;4.18;;;6.10;99.90;;;;;;5055355;28;20052;-67
2023/04/25 03:27:12;;;;;;;14.45;3.33;;;6.10;99.90;;;;;;5070193;28;20041;-66
2023/04/25 03:29:38;;;;;;;14.63;2.67;;;6.00;99.90;;;;;;5070441;28;20424;-67
2023/04/25 03:32:04;;;;;;;14.27;3.78;;;6.00;99.90;;;;;;5055548;28;20159;-66
2023/04/25 03:34:30;;;;;;;9.45;2.42;;;6.10;99.90;;;;;;5053975;28;20037;-67
2023/04/25 03:36:56;;;;;;;10.55;2.88;;;6.10;99.90;;;;;;5070960;28;20041;-67
2023/04/25 03:39:21;;;;;;;10.30;2.22;;;6.00;99.90;;;;;;5069955;28;20040;-66
2023/04/25 03:41:47;;;;;;;15.60;3.50;;;5.90;99.90;;;;;;5054666;28;20033;-67
2023/04/25 03:44:13;;;;;;;12.65;2.42;;;5.70;99.90;;;;;;5071003;28;20090;-67
2023/04/25 03:46:38;;;;;;;10.48;2.53;;;5.60;99.90;;;;;;5054714;28;20486;-67
2023/04/25 03:49:04;;;;;;;16.45;3.55;;;5.50;99.90;;;;;;5054436;28;20041;-67
2023/04/25 03:51:30;;;;;;;12.23;3.15;;;5.40;99.90;;;;;;5070189;28;20044;-67
2023/04/25 03:53:56;;;;;;;23.80;4.22;;;5.40;99.90;;;;;;5054819;28;20028;-66
2023/04/25 03:56:22;;;;;;;13.70;3.22;;;5.40;99.90;;;;;;5069250;28;20044;-66
2023/04/25 03:58:47;;;;;;;13.48;3.22;;;5.30;99.90;;;;;;5055126;28;20486;-67
2023/04/25 04:01:13;;;;;;;11.10;2.60;;;5.30;99.90;;;;;;5070375;28;20040;-66
2023/04/25 04:03:39;;;;;;;12.75;4.38;;;5.30;99.90;;;;;;5053599;28;20092;-67
2023/04/25 04:06:06;;;;;;;8.55;2.50;;;5.30;99.90;;;;;;5070291;28;20036;-67
2023/04/25 04:08:33;;;;;;;12.60;3.72;;;5.30;99.90;;;;;;5068702;28;20061;-66
2023/04/25 04:10:59;;;;;;;17.50;3.40;;;5.30;99.90;;;;;;5070195;28;20477;-66
2023/04/25 04:13:28;;;;;;;10.23;2.65;;;5.30;99.90;;;;;;5052594;28;20040;-66
2023/04/25 04:15:55;;;;;;;14.50;2.80;;;5.30;99.90;;;;;;5069107;28;20029;-66
2023/04/25 04:18:21;;;;;;;11.70;2.22;;;5.20;99.90;;;;;;5069253;28;20033;-66
2023/04/25 04:20:47;;;;;;;7.32;2.90;;;5.20;99.90;;;;;;5054552;28;20059;-66
2023/04/25 04:23:13;;;;;;;15.85;3.75;;;5.30;99.90;;;;;;5052537;28;20099;-66
2023/04/25 04:25:39;;;;;;;11.20;2.88;;;5.30;99.90;;;;;;5053918;28;20077;-66
2023/04/25 04:28:06;;;;;;;13.32;3.17;;;5.30;99.90;;;;;;5053361;28;20041;-66
2023/04/25 04:30:33;;;;;;;11.80;2.30;;;5.40;99.90;;;;;;5051934;28;20084;-66
2023/04/25 04:33:00;;;;;;;11.10;3.92;;;5.40;99.90;;;;;;5052962;28;20083;-66
2023/04/25 04:35:26;;;;;;;11.35;3.58;;;5.40;99.90;;;;;;5068923;28;20498;-66
2023/04/25 04:37:53;;;;;;;10.80;3.75;;;5.50;99.90;;;;;;5053605;28;20076;-67
2023/04/25 04:40:18;;;;;;;11.38;4.30;;;5.50;99.90;;;;;;5069166;28;20040;-66
2023/04/25 04:42:47;;;;;;;10.27;3.00;;;5.50;99.90;;;;;;5052622;28;20086;-66
2023/04/25 04:45:19;;;;;;;11.85;3.40;;;5.60;99.90;;;;;;5053384;28;20045;-66
2023/04/25 04:47:45;;;;;;;20.20;3.20;;;5.60;99.90;;;;;;5069452;28;20382;-66
2023/04/25 04:50:11;;;;;;;9.40;3.20;;;5.70;99.90;;;;;;5053908;28;20040;-67
2023/04/25 04:52:37;;;;;;;16.15;2.80;;;5.70;99.90;;;;;;5034524;28;20492;-66
2023/04/25 04:55:04;;;;;;;10.27;2.45;;;5.80;99.90;;;;;;5069392;28;20112;-66
2023/04/25 04:57:30;;;;;;;11.98;3.50;;;5.80;99.90;;;;;;5069025;28;20102;-66
2023/04/25 04:59:56;;;;;;;9.25;2.35;;;5.80;99.90;;;;;;5068514;28;20375;-66
2023/04/25 05:02:22;;;;;;;14.15;2.80;;;5.90;99.90;;;;;;5053081;28;20048;-66
2023/04/25 05:04:48;;;;;;;10.15;2.95;;;6.00;99.90;;;;;;5052913;28;20037;-67
2023/04/25 05:07:13;;;;;;;11.73;2.95;;;6.00;99.90;;;;;;5069033;28;20036;-67
2023/04/25 05:09:39;;;;;;;11.70;2.70;;;6.00;99.90;;;;;;5067947;28;20063;-66
2023/04/25 05:12:05;;;;;;;9.57;2.10;;;6.10;99.90;;;;;;5052705;28;20088;-66
2023/04/25 05:14:31;;;;;;;7.72;1.92;;;6.10;99.90;;;;;;5068528;28;20045;-67
2023/04/25 05:16:56;;;;;;;9.30;2.88;;;6.10;99.90;;;;;;5068735;28;20037;-66
2023/04/25 05:19:23;;;;;;;6.47;2.17;;;6.10;99.90;;;;;;5051829;28;20037;-67
2023/04/25 05:21:49;;;;;;;7.80;2.33;;;6.10;99.90;;;;;;5068743;28;20553;-67
2023/04/25 05:24:14;;;;;;;12.55;4.03;;;6.10;99.90;;;;;;5069072;28;20049;-67
2023/04/25 05:26:40;;;;;;;15.85;4.50;;;6.20;99.90;;;;;;5067741;28;20045;-66
2023/04/25 05:29:06;;;;;;;14.85;4.22;;;6.20;99.90;;;;;;5068142;28;20048;-66
2023/04/25 05:31:32;;;;;;;9.55;3.65;;;6.20;99.90;;;;;;5051272;28;20041;-66
2023/04/25 05:33:58;;;;;;;12.80;2.30;;;6.20;99.90;;;;;;5051104;28;20037;-67
2023/04/25 05:36:23;;;;;;;35.35;21.75;;;6.30;99.90;;;;;;5034794;28;20107;-66
2023/04/25 05:38:49;;;;;;;12.93;5.82;;;6.30;99.90;;;;;;5052045;28;20068;-67
2023/04/25 05:41:15;;;;;;;12.30;5.47;;;6.40;99.90;;;;;;5050987;28;20040;-66
2023/04/25 05:43:45;;;;;;;9.35;2.75;;;6.40;99.90;;;;;;5052769;28;20049;-66
2023/04/25 05:46:11;;;;;;;9.60;2.92;;;6.30;99.90;;;;;;5051817;28;20041;-67
2023/04/25 05:48:37;;;;;;;6.68;2.47;;;6.20;99.90;;;;;;5033748;28;20045;-67
2023/04/25 05:51:03;;;;;;;5.47;1.92;;;6.10;99.90;;;;;;5051560;28;20044;-66
2023/04/25 05:53:29;;;;;;;22.95;14.98;;;5.90;99.90;;;;;;5052174;28;20044;-66
2023/04/25 05:55:55;;;;;;;19.15;13.00;;;5.90;99.90;;;;;;5050788;28;20033;-66
2023/04/25 05:58:20;;;;;;;102.90;48.88;;;5.90;99.90;;;;;;5050989;28;20160;-67
2023/04/25 06:00:46;;;;;;;346.00;183.82;;;5.90;99.90;;;;;;5052572;28;20029;-66
2023/04/25 06:03:14;;;;;;;93.68;45.17;;;5.90;99.90;;;;;;5051748;28;20062;-66
2023/04/25 06:05:42;;;;;;;44.38;24.23;;;5.90;99.90;;;;;;5049983;28;20049;-67
2023/04/25 06:08:07;;;;;;;93.72;57.70;;;5.90;99.90;;;;;;5050117;28;20049;-67
2023/04/25 06:10:33;;;;;;;137.95;75.20;;;6.00;99.90;;;;;;5049980;28;20056;-71
2023/04/25 06:12:59;;;;;;;120.20;69.25;;;6.00;99.90;;;;;;5051096;28;20041;-68
2023/04/25 06:15:24;;;;;;;120.72;74.90;;;6.10;99.90;;;;;;5049748;28;20047;-68
2023/04/25 06:17:50;;;;;;;55.70;40.72;;;6.20;99.90;;;;;;5051447;28;20545;-67
2023/04/25 06:20:16;;;;;;;47.10;32.58;;;6.30;99.90;;;;;;5051054;28;20087;-67
2023/04/25 06:22:41;;;;;;;86.18;74.78;;;6.40;99.90;;;;;;5030170;28;20486;-66
2023/04/25 06:25:07;;;;;;;23.05;15.85;;;6.50;99.90;;;;;;5028819;28;20045;-60
2023/04/25 06:27:34;;;;;;;144.10;84.47;;;6.70;99.90;;;;;;5027749;28;20115;-60
2023/04/25 06:29:59;;;;;;;80.57;46.25;;;6.80;99.90;;;;;;5043403;28;20037;-59
2023/04/25 06:32:27;;;;;;;15.75;5.35;;;7.00;99.90;;;;;;5030327;28;20045;-59
2023/04/25 06:34:53;;;;;;;7.22;2.20;;;7.20;99.90;;;;;;5049682;28;20120;-59
2023/04/25 06:37:18;;;;;;;9.30;2.63;;;7.30;99.90;;;;;;5048884;28;20445;-59
2023/04/25 06:39:44;;;;;;;8.32;1.77;;;7.40;99.90;;;;;;5048265;28;20529;-59
2023/04/25 06:42:10;;;;;;;8.48;2.05;;;7.40;99.90;;;;;;5050034;28;20144;-59
2023/04/25 06:44:36;;;;;;;10.85;2.40;;;7.50;99.90;;;;;;5030559;28;20382;-59
2023/04/25 06:47:02;;;;;;;7.15;2.00;;;7.40;99.90;;;;;;5048138;28;20857;-59
2023/04/25 06:49:27;;;;;;;6.05;1.55;;;7.20;99.90;;;;;;5047075;28;20080;-59
2023/04/25 06:51:53;;;;;;;8.32;1.63;;;7.00;99.90;;;;;;5030881;28;20103;-59
2023/04/25 06:54:19;;;;;;;5.68;1.30;;;6.80;99.90;;;;;;5028585;28;20045;-59
2023/04/25 06:56:44;;;;;;;6.40;1.58;;;6.60;99.90;;;;;;5037882;28;20128;-59
2023/04/25 06:59:10;;;;;;;7.45;1.63;;;6.40;99.90;;;;;;5030069;28;20745;-59
2023/04/25 07:01:36;;;;;;;7.70;1.60;;;6.20;99.90;;;;;;5047406;28;20409;-59
2023/04/25 07:04:01;;;;;;;6.57;1.17;;;6.20;99.90;;;;;;5047132;28;20485;-61
2023/04/25 07:06:27;;;;;;;5.13;1.50;;;6.10;99.90;;;;;;5045215;28;20047;-61
2023/04/25 07:08:54;;;;;;;5.43;1.30;;;6.10;99.90;;;;;;5045075;28;20064;-61
2023/04/25 07:11:19;;;;;;;10.95;3.45;;;6.20;99.90;;;;;;5048160;28;20037;-61
2023/04/25 07:13:45;;;;;;;7.57;2.33;;;6.20;99.90;;;;;;5048653;28;20123;-61
2023/04/25 07:16:11;;;;;;;6.28;1.90;;;6.30;99.90;;;;;;5047583;28;20048;-60
2023/04/25 07:18:36;;;;;;;10.82;4.43;;;6.30;99.90;;;;;;5046123;28;20045;-59
2023/04/25 07:21:02;;;;;;;6.40;2.33;;;6.40;99.90;;;;;;5047347;28;20037;-59
2023/04/25 07:23:28;;;;;;;6.57;1.40;;;6.50;99.90;;;;;;5046775;28;20096;-60
2023/04/25 07:25:53;;;;;;;4.20;1.08;;;6.40;99.90;;;;;;5047142;28;20087;-60
2023/04/25 07:28:20;;;;;;;9.75;2.35;;;6.40;99.90;;;;;;5046528;28;20045;-65
2023/04/25 07:30:45;;;;;;;6.78;2.05;;;6.60;99.90;;;;;;5047990;28;20084;-65
2023/04/25 07:33:11;;;;;;;5.80;1.67;;;6.70;99.90;;;;;;5029814;28;20498;-65
2023/04/25 07:35:37;;;;;;;6.65;2.03;;;6.80;99.90;;;;;;5030435;28;20120;-64
2023/04/25 07:38:03;;;;;;;8.35;2.22;;;7.00;99.90;;;;;;5047626;28;20072;-65
2023/04/25 07:40:29;;;;;;;6.50;1.52;;;7.10;99.90;;;;;;5026237;28;20083;-64
2023/04/25 07:42:54;;;;;;;6.55;1.60;;;7.20;99.90;;;;;;5044329;28;20033;-64
2023/04/25 07:45:20;;;;;;;5.35;1.35;;;7.20;99.90;;;;;;5046475;28;20045;-64
2023/04/25 07:47:46;;;;;;;6.80;1.50;;;7.30;99.90;;;;;;5048196;28;20045;-64
2023/04/25 07:50:11;;;;;;;6.50;1.20;;;7.40;99.90;;;;;;5047265;28;20547;-64
2023/04/25 07:52:37;;;;;;;14.00;1.80;;;7.50;99.90;;;;;;5049146;28;20064;-66
2023/04/25 07:55:04;;;;;;;9.23;1.90;;;7.70;99.90;;;;;;5049664;28;20033;-66
2023/04/25 07:57:30;;;;;;;7.10;1.73;;;7.80;99.90;;;;;;5049827;28;20088;-64
2023/04/25 07:59:56;;;;;;;5.55;1.65;;;8.00;99.90;;;;;;5052221;28;20507;-64
2023/04/25 08:02:21;;;;;;;8.70;2.17;;;8.10;99.90;;;;;;5029960;28;20044;-65
2023/04/25 08:04:49;;;;;;;4.45;1.25;;;7.90;99.90;;;;;;5039214;28;20040;-66
2023/04/25 08:07:15;;;;;;;5.38;1.27;;;7.50;99.90;;;;;;5048766;28;20033;-66
2023/04/25 08:09:40;;;;;;;7.55;2.17;;;7.10;99.90;;;;;;5048347;28;20692;-64
2023/04/25 08:12:06;;;;;;;3.47;0.98;;;6.90;99.90;;;;;;5033308;28;20033;-65
2023/04/25 08:14:35;;;;;;;3.25;0.85;;;6.80;99.90;;;;;;5049642;28;20033;-64
2023/04/25 08:17:03;;;;;;;4.82;1.40;;;6.80;99.90;;;;;;5050397;28;20124;-64
2023/04/25 08:19:30;;;;;;;3.85;1.23;;;6.90;99.90;;;;;;5065997;28;20200;-65
2023/04/25 08:21:56;;;;;;;7.68;2.17;;;7.00;99.90;;;;;;5049560;28;20048;-65
2023/04/25 08:24:22;;;;;;;5.70;2.42;;;7.10;99.90;;;;;;5049838;28;20053;-64
2023/04/25 08:26:48;;;;;;;6.75;2.47;;;7.10;99.90;;;;;;5049485;28;20038;-64
2023/04/25 08:29:14;;;;;;;5.13;1.52;;;7.20;99.90;;;;;;5050801;28;20569;-66
2023/04/25 08:31:40;;;;;;;8.13;1.73;;;7.20;99.90;;;;;;5048667;28;20041;-65
2023/04/25 08:34:05;;;;;;;5.22;1.75;;;7.30;99.90;;;;;;5049824;28;20041;-66
2023/04/25 08:36:31;;;;;;;5.63;1.55;;;7.40;99.90;;;;;;5048244;28;20044;-64
2023/04/25 08:38:58;;;;;;;8.93;1.67;;;7.60;99.90;;;;;;5051568;28;20124;-64
2023/04/25 08:41:25;;;;;;;9.00;2.05;;;7.70;99.90;;;;;;5033001;28;20044;-64
2023/04/25 08:43:53;;;;;;;8.98;2.78;;;7.70;99.90;;;;;;5050978;28;20045;-64
2023/04/25 08:46:19;;;;;;;9.18;2.35;;;7.90;99.90;;;;;;5032622;28;20038;-64
2023/04/25 08:48:45;;;;;;;11.60;2.90;;;8.10;99.90;;;;;;5049970;28;20071;-65
2023/04/25 08:51:19;;;;;;;11.23;4.28;;;8.50;99.90;;;;;;5064845;28;20041;-65
2023/04/25 08:53:48;;;;;;;15.77;2.75;;;8.70;99.90;;;;;;5049807;28;20124;-65
2023/04/25 08:56:17;;;;;;;9.25;3.03;;;8.80;99.90;;;;;;5050969;28;20045;-65
2023/04/25 08:58:44;;;;;;;10.13;2.80;;;8.50;99.90;;;;;;5031650;28;20040;-65
2023/04/25 09:01:10;;;;;;;8.88;2.53;;;8.30;99.90;;;;;;5049044;28;20584;-66
2023/04/25 09:03:36;;;;;;;13.13;2.42;;;8.20;99.90;;;;;;5065862;28;20041;-65
2023/04/25 09:06:03;;;;;;;10.15;2.47;;;8.20;99.90;;;;;;5048927;28;20075;-64
2023/04/25 09:08:28;;;;;;;6.82;2.05;;;8.30;99.90;;;;;;5046882;28;20052;-67
2023/04/25 09:10:55;;;;;;;8.45;2.53;;;8.40;99.90;;;;;;5047685;28;20102;-67
2023/04/25 09:13:28;;;;;;;12.55;5.88;;;8.60;99.90;;;;;;5049458;28;20482;-67
2023/04/25 09:15:57;;;;;;;12.73;7.18;;;8.70;99.90;;;;;;5052099;28;20047;-65
2023/04/25 09:18:27;;;;;;;8.95;3.70;;;8.60;99.90;;;;;;5052282;28;20535;-65
2023/04/25 09:20:55;;;;;;;6.55;2.92;;;8.60;99.90;;;;;;5068892;28;20127;-65
2023/04/25 09:23:22;;;;;;;22.50;9.48;;;8.70;99.90;;;;;;5051136;28;20041;-65
2023/04/25 09:25:53;;;;;;;19.75;9.40;;;8.60;99.90;;;;;;5034558;28;20080;-66
2023/04/25 09:28:27;;;;;;;16.63;6.63;;;8.60;99.90;;;;;;5034512;28;20037;-68
2023/04/25 09:30:59;;;;;;;11.13;4.60;;;8.70;99.90;;;;;;5051755;28;20041;-65
2023/04/25 09:33:30;;;;;;;13.35;3.88;;;8.60;99.90;;;;;;5051740;28;20392;-64
2023/04/25 09:36:06;;;;;;;15.38;6.72;;;8.70;99.90;;;;;;5051776;28;20029;-64
2023/04/25 09:38:40;;;;;;;8.32;1.80;;;8.80;99.90;;;;;;5051313;28;20044;-64
2023/04/25 09:41:06;;;;;;;12.02;5.10;;;8.60;99.90;;;;;;5052395;28;20044;-66
2023/04/25 09:43:31;;;;;;;5.85;1.67;;;8.60;99.90;;;;;;5051238;28;20405;-65
2023/04/25 09:46:00;;;;;;;10.98;4.80;;;8.70;99.90;;;;;;5052925;28;20049;-64
2023/04/25 09:48:26;;;;;;;9.13;2.60;;;8.80;99.70;;;;;;5051818;28;20501;-64
2023/04/25 09:51:05;;;;;;;13.38;2.70;;;9.00;99.90;;;;;;5051416;28;20037;-65
2023/04/25 09:53:38;;;;;;;12.60;3.42;;;9.10;99.90;;;;;;5050533;28;20529;-64
2023/04/25 09:56:06;;;;;;;9.98;3.47;;;9.00;99.90;;;;;;5051588;28;20040;-65
2023/04/25 09:58:33;;;;;;;9.35;2.97;;;8.60;99.90;;;;;;5051133;28;20397;-64
2023/04/25 10:01:01;;;;;;;8.57;3.00;;;8.40;99.90;;;;;;5050092;28;20041;-64
2023/04/25 10:03:31;;;;;;;11.27;4.38;;;8.40;99.90;;;;;;5051111;28;20055;-65
2023/04/25 10:05:59;;;;;;;10.82;4.68;;;8.40;99.90;;;;;;5034752;28;20095;-64
2023/04/25 10:08:32;;;;;;;20.08;11.52;;;8.50;99.90;;;;;;5049913;28;20429;-65
2023/04/25 10:11:06;;;;;;;11.23;3.35;;;8.60;99.90;;;;;;5051085;28;20041;-63
2023/04/25 10:13:34;;;;;;;9.25;2.40;;;8.70;99.90;;;;;;5051572;28;20499;-64
2023/04/25 10:16:01;;;;;;;6.93;3.20;;;8.70;99.90;;;;;;5050256;28;20401;-65
2023/04/25 10:18:28;;;;;;;9.35;2.65;;;8.50;99.90;;;;;;5052002;28;20029;-63
2023/04/25 10:20:59;;;;;;;10.90;2.97;;;8.50;99.90;;;;;;5051203;28;20091;-65
2023/04/25 10:23:26;;;;;;;6.68;2.45;;;8.40;99.90;;;;;;5049987;28;20033;-65
2023/04/25 10:25:52;;;;;;;8.43;2.40;;;8.30;99.90;;;;;;5050926;28;20051;-63
2023/04/25 10:28:19;;;;;;;6.95;2.22;;;8.30;99.90;;;;;;5049361;28;20041;-63
2023/04/25 10:30:58;;;;;;;11.10;2.45;;;8.30;99.90;;;;;;5051995;28;20033;-64
2023/04/25 10:33:41;;;;;;;8.90;2.00;;;8.40;99.90;;;;;;5049817;28;20052;-64
2023/04/25 10:36:31;;;;;;;10.27;2.40;;;8.40;99.90;;;;;;5050496;28;20041;-64
2023/04/25 10:39:06;;;;;;;4.20;1.40;;;8.50;99.90;;;;;;5050900;28;20532;-65
2023/04/25 10:41:44;;;;;;;7.45;2.28;;;8.50;99.90;;;;;;5049916;28;20052;-64
2023/04/25 10:44:10;;;;;;;8.52;2.15;;;8.60;99.90;;;;;;5051396;28;20543;-63
2023/04/25 10:46:36;;;;;;;10.25;2.13;;;8.80;99.90;;;;;;5051524;28;20045;-69
2023/04/25 10:49:03;;;;;;;8.10;1.75;;;9.00;99.90;;;;;;5052278;28;20037;-68
2023/04/25 10:51:34;;;;;;;7.05;1.73;;;9.20;99.90;;;;;;5050614;28;20040;-66
2023/04/25 10:54:04;;;;;;;11.55;2.38;;;9.40;99.90;;;;;;5052321;28;20037;-64
2023/04/25 10:56:37;;;;;;;8.70;1.80;;;9.60;99.90;;;;;;5049234;28;20029;-62
2023/04/25 10:59:09;;;;;;;6.70;1.67;;;9.20;99.90;;;;;;5033841;28;20037;-62
2023/04/25 11:01:55;;;;;;;6.22;1.63;;;8.70;99.90;;;;;;5033577;28;20048;-64
2023/04/25 11:04:33;;;;;;;4.72;1.20;;;8.60;99.90;;;;;;5046676;28;20048;-63
2023/04/25 11:07:31;;;;;;;6.57;1.65;;;8.50;99.90;;;;;;5050400;28;20041;-62
2023/04/25 11:10:00;;;;;;;9.63;2.47;;;8.60;99.90;;;;;;5050672;28;20559;-62
2023/04/25 11:12:26;;;;;;;7.00;1.80;;;8.80;99.90;;;;;;5049433;28;20457;-63
2023/04/25 11:14:59;;;;;;;8.68;2.38;;;8.80;99.90;;;;;;5052220;28;20120;-62
2023/04/25 11:17:25;;;;;;;8.73;1.88;;;8.90;99.90;;;;;;5050304;28;20459;-62
2023/04/25 11:19:51;;;;;;;10.15;2.55;;;9.00;99.90;;;;;;5048023;28;20375;-63
2023/04/25 11:22:16;;;;;;;10.68;2.67;;;9.20;99.90;;;;;;5050082;28;20037;-64
2023/04/25 11:24:42;;;;;;;6.53;1.73;;;9.20;99.90;;;;;;5046952;28;20037;-65
2023/04/25 11:27:08;;;;;;;5.45;1.50;;;9.20;99.90;;;;;;5051607;28;20037;-66
2023/04/25 11:29:35;;;;;;;6.80;1.80;;;9.00;99.90;;;;;;5051520;28;20041;-64
2023/04/25 11:32:01;;;;;;;6.10;1.98;;;8.60;99.90;;;;;;5037280;28;20084;-63
2023/04/25 11:34:30;;;;;;;6.00;2.17;;;8.30;99.90;;;;;;5033060;28;20034;-64
2023/04/25 11:36:56;;;;;;;6.32;1.50;;;8.10;99.90;;;;;;5053983;28;20052;-64
2023/04/25 11:39:23;;;;;;;10.40;1.48;;;8.00;99.90;;;;;;5051743;28;20037;-64
2023/04/25 11:41:49;;;;;;;6.78;1.90;;;8.00;99.90;;;;;;5037389;28;20470;-64
2023/04/25 11:44:16;;;;;;;5.82;1.67;;;8.10;99.90;;;;;;5052683;28;20477;-64
2023/04/25 11:46:43;;;;;;;5.40;1.73;;;8.40;99.90;;;;;;5052372;28;20107;-65
2023/04/25 11:49:08;;;;;;;7.50;2.00;;;8.70;99.90;;;;;;5053623;28;20040;-64
2023/04/25 11:51:41;;;;;;;9.95;2.38;;;8.70;99.90;;;;;;5051685;28;20177;-64
2023/04/25 11:54:07;;;;;;;9.23;1.85;;;8.70;99.90;;;;;;5036466;28;20045;-63
2023/04/25 11:56:33;;;;;;;6.53;1.90;;;8.70;99.90;;;;;;5053277;28;20086;-63
2023/04/25 11:59:04;;;;;;;6.25;1.75;;;8.70;99.90;;;;;;5053793;28;20063;-64
2023/04/25 12:01:35;;;;;;;10.85;2.83;;;8.60;99.90;;;;;;5052115;28;20428;-63
2023/04/25 12:04:13;;;;;;;5.05;1.75;;;8.60;99.90;;;;;;5052033;28;20041;-63
2023/04/25 12:06:40;;;;;;;6.05;1.77;;;8.80;99.90;;;;;;5054108;28;20091;-64
2023/04/25 12:09:09;;;;;;;7.57;2.75;;;9.00;99.90;;;;;;5036372;28;20053;-63
2023/04/25 12:11:53;;;;;;;7.45;2.50;;;9.20;99.90;;;;;;5052377;28;20509;-64
2023/04/25 12:14:31;;;;;;;7.72;1.95;;;9.30;99.90;;;;;;5051711;28;20036;-63
2023/04/25 12:17:07;;;;;;;9.60;3.05;;;9.40;99.90;;;;;;5053423;28;20163;-63
2023/04/25 12:19:39;;;;;;;11.15;1.80;;;9.40;99.90;;;;;;5052717;28;20119;-65
2023/04/25 12:22:22;;;;;;;7.47;2.00;;;9.40;99.90;;;;;;5035902;28;20413;-62
2023/04/25 12:24:48;;;;;;;5.28;1.83;;;9.10;99.90;;;;;;5052976;28;20036;-63
2023/04/25 12:27:16;;;;;;;6.88;1.67;;;9.00;99.90;;;;;;5051820;28;20123;-63
2023/04/25 12:29:54;;;;;;;5.45;1.48;;;8.80;99.90;;;;;;5052542;28;20051;-64
2023/04/25 12:32:20;;;;;;;10.68;1.58;;;8.80;99.90;;;;;;5052832;28;20379;-64
2023/04/25 12:34:46;;;;;;;8.30;1.83;;;8.70;99.90;;;;;;5053054;28;20037;-62
2023/04/25 12:37:11;;;;;;;10.23;2.53;;;8.90;99.90;;;;;;5052162;28;20151;-64
2023/04/25 12:39:37;;;;;;;10.57;1.73;;;9.20;99.90;;;;;;5053458;28;20037;-65
2023/04/25 12:42:03;;;;;;;7.38;2.10;;;9.40;99.90;;;;;;5053524;28;20113;-65
2023/04/25 12:44:29;;;;;;;8.15;2.17;;;9.60;99.90;;;;;;5052471;28;20047;-67
2023/04/25 12:46:54;;;;;;;9.43;1.90;;;9.70;99.90;;;;;;5053150;28;20045;-65
2023/04/25 12:49:20;;;;;;;6.97;2.10;;;9.80;99.90;;;;;;5035100;28;20371;-64